< < Back
Terminal Aerodrome Forecast


Current Version              Previous Versions:   1  2  3  4  5  6  7  8  9  

Terminal Aerodrome Forecast

517
FTUS42 KGSP 081135
TAFHKY
TAF
KHKY 081135Z 0812/0912 20003KT P6SM SCT110
     FM081600 19004KT P6SM VCSH FEW035 BKN060
      TEMPO 0818/0822 5SM -SHRA OVC030
     FM090000 27006KT P6SM SCT050 BKN090=



Latest METAR

836
SAUS70 KWBC 091200
MTRHKY
METAR KHKY 091153Z AUTO 29004KT 10SM OVC100 M01/M09 A2966 RMK AO2 SLP040
T10111094 10011 21011 53012


USA.gov is the U.S. government's official web portal to all federal, state and local government web resources and services.